createdAt,value
2022-08-28T00:00:52.061Z,17.10
2022-08-28T00:01:52.041Z,17.13
2022-08-28T00:02:52.081Z,17.10
2022-08-28T00:03:52.031Z,17.09
2022-08-28T00:04:52.101Z,17.10
2022-08-28T00:05:52.004Z,17.07
2022-08-28T00:06:51.993Z,17.07
2022-08-28T00:07:51.983Z,17.05
2022-08-28T00:08:51.980Z,17.05
2022-08-28T00:09:51.985Z,17.09
2022-08-28T00:10:51.950Z,17.04
2022-08-28T00:11:51.952Z,17.05
2022-08-28T00:12:51.933Z,17.07
2022-08-28T00:13:51.923Z,17.05
2022-08-28T00:14:51.921Z,17.04
2022-08-28T00:15:51.970Z,17.04
2022-08-28T00:16:52.393Z,17.05
2022-08-28T00:17:51.881Z,17.04
2022-08-28T00:18:51.863Z,17.05
2022-08-28T00:19:51.850Z,17.07
2022-08-28T00:20:51.869Z,17.07
2022-08-28T00:21:51.833Z,17.12
2022-08-28T00:22:51.822Z,17.05
2022-08-28T00:23:51.799Z,17.09
2022-08-28T00:24:51.796Z,17.04
2022-08-28T00:25:51.782Z,17.05
2022-08-28T00:26:51.780Z,17.01
2022-08-28T00:27:51.751Z,17.02
2022-08-28T00:28:51.760Z,17.02
2022-08-28T00:29:51.763Z,17.04
2022-08-28T00:30:51.772Z,17.02
2022-08-28T00:31:51.711Z,17.02
2022-08-28T00:32:51.747Z,17.01
2022-08-28T00:33:51.691Z,17.05
2022-08-28T00:34:51.702Z,17.01
2022-08-28T00:35:51.683Z,17.02
2022-08-28T00:36:51.661Z,17.01
2022-08-28T00:37:51.649Z,17.02
2022-08-28T00:38:51.643Z,17.05
2022-08-28T00:39:51.748Z,17.02
2022-08-28T00:40:51.703Z,17.02
2022-08-28T00:41:51.601Z,17.02
2022-08-28T00:42:52.603Z,17.02
2022-08-28T00:43:51.582Z,17.02
2022-08-28T00:44:51.571Z,17.02
2022-08-28T00:45:51.572Z,17.02
2022-08-28T00:46:51.575Z,17.01
2022-08-28T00:47:51.542Z,17.01
2022-08-28T00:48:51.536Z,17.02
2022-08-28T00:49:51.542Z,17.04
2022-08-28T00:50:51.525Z,17.07
2022-08-28T00:51:51.494Z,17.09
2022-08-28T00:52:51.541Z,17.04
2022-08-28T00:53:51.471Z,17.09
2022-08-28T00:54:59.463Z,17.09
2022-08-28T00:55:52.461Z,17.09
2022-08-28T00:56:51.441Z,17.09
2022-08-28T00:57:51.421Z,17.10
2022-08-28T00:58:51.420Z,17.09
2022-08-28T00:59:51.422Z,17.07
2022-08-28T01:00:51.413Z,17.09
2022-08-28T01:01:51.439Z,17.07
2022-08-28T01:02:51.440Z,17.07
2022-08-28T01:03:51.362Z,17.10
2022-08-28T01:04:51.351Z,17.10
2022-08-28T01:05:51.373Z,17.13
2022-08-28T01:06:51.345Z,17.12
2022-08-28T01:07:51.322Z,17.10
2022-08-28T01:08:51.311Z,17.07
2022-08-28T01:09:51.301Z,17.12
2022-08-28T01:10:51.301Z,17.10
2022-08-28T01:11:51.274Z,17.09
2022-08-28T01:12:51.272Z,17.07
2022-08-28T01:13:51.281Z,17.07
2022-08-28T01:14:51.249Z,17.07
2022-08-28T01:15:51.358Z,17.04
2022-08-28T01:16:51.222Z,17.05
2022-08-28T01:17:51.210Z,17.04
2022-08-28T01:18:51.222Z,17.02
2022-08-28T01:19:51.193Z,16.99
2022-08-28T01:20:51.192Z,16.98
2022-08-28T01:21:51.531Z,16.98
2022-08-28T01:22:51.161Z,16.98
2022-08-28T01:23:51.160Z,16.98
2022-08-28T01:24:51.193Z,16.97
2022-08-28T01:25:51.192Z,16.94
2022-08-28T01:26:51.176Z,16.95
2022-08-28T01:27:51.143Z,16.94
2022-08-28T01:28:51.163Z,16.94
2022-08-28T01:29:51.151Z,16.92
2022-08-28T01:30:51.158Z,16.92
2022-08-28T01:31:51.112Z,16.94
2022-08-28T01:32:51.093Z,16.91
2022-08-28T01:33:51.083Z,16.97
2022-08-28T01:34:51.091Z,16.95
2022-08-28T01:35:51.083Z,16.95
2022-08-28T01:36:51.058Z,16.95
2022-08-28T01:37:51.045Z,16.97
2022-08-28T01:38:51.022Z,16.95
2022-08-28T01:39:51.031Z,16.92
2022-08-28T01:40:51.043Z,16.87
2022-08-28T01:41:50.984Z,16.87
2022-08-28T01:42:50.972Z,16.87
2022-08-28T01:43:50.984Z,16.91
2022-08-28T01:44:50.980Z,16.91
2022-08-28T01:45:50.997Z,16.91
2022-08-28T01:46:50.963Z,16.86
2022-08-28T01:47:51.324Z,16.86
2022-08-28T01:48:50.924Z,16.86
2022-08-28T01:49:50.903Z,16.82
2022-08-28T01:50:50.921Z,16.83
2022-08-28T01:51:51.274Z,16.80
2022-08-28T01:52:50.939Z,16.77
2022-08-28T01:53:50.854Z,16.79
2022-08-28T01:54:50.873Z,16.74
2022-08-28T01:55:50.843Z,16.72
2022-08-28T01:56:50.813Z,16.69
2022-08-28T01:57:50.784Z,16.69
2022-08-28T01:58:50.782Z,16.69
2022-08-28T01:59:50.775Z,16.66
2022-08-28T02:00:50.755Z,16.65
2022-08-28T02:01:50.943Z,16.64
2022-08-28T02:02:50.732Z,16.58
2022-08-28T02:03:50.745Z,16.58
2022-08-28T02:04:50.760Z,16.58
2022-08-28T02:05:50.715Z,16.58
2022-08-28T02:06:50.693Z,16.57
2022-08-28T02:07:50.682Z,16.58
2022-08-28T02:08:50.663Z,16.55
2022-08-28T02:09:50.683Z,16.50
2022-08-28T02:10:50.644Z,16.50
2022-08-28T02:11:50.644Z,16.49
2022-08-28T02:12:50.643Z,16.49
2022-08-28T02:13:50.807Z,16.47
2022-08-28T02:14:50.603Z,16.46
2022-08-28T02:15:50.618Z,16.46
2022-08-28T02:16:50.602Z,16.46
2022-08-28T02:17:50.573Z,16.43
2022-08-28T02:18:50.570Z,16.40
2022-08-28T02:19:50.540Z,16.41
2022-08-28T02:20:50.533Z,16.39
2022-08-28T02:21:50.553Z,16.37
2022-08-28T02:22:50.523Z,16.39
2022-08-28T02:23:50.504Z,16.37
2022-08-28T02:24:50.483Z,16.34
2022-08-28T02:25:50.921Z,16.34
2022-08-28T02:26:50.483Z,16.36
2022-08-28T02:27:50.455Z,16.39
2022-08-28T02:28:50.479Z,16.37
2022-08-28T02:29:50.443Z,16.39
2022-08-28T02:30:50.550Z,16.37
2022-08-28T02:31:50.443Z,16.37
2022-08-28T02:32:50.412Z,16.37
2022-08-28T02:33:50.383Z,16.39
2022-08-28T02:34:50.373Z,16.37
2022-08-28T02:35:50.370Z,16.40
2022-08-28T02:36:50.385Z,16.37
2022-08-28T02:37:50.350Z,16.40
2022-08-28T02:38:52.960Z,16.39
2022-08-28T02:39:51.520Z,16.40
2022-08-28T02:40:50.312Z,16.36
2022-08-28T02:41:50.331Z,16.37
2022-08-28T02:42:50.314Z,16.36
2022-08-28T02:43:50.285Z,16.34
2022-08-28T02:44:50.274Z,16.32
2022-08-28T02:45:50.355Z,16.31
2022-08-28T02:46:50.254Z,16.31
2022-08-28T02:47:50.242Z,16.28
2022-08-28T02:48:50.223Z,16.28
2022-08-28T02:49:50.207Z,16.29
2022-08-28T02:50:50.193Z,16.29
2022-08-28T02:51:50.234Z,16.31
2022-08-28T02:52:50.185Z,16.32
2022-08-28T02:53:50.173Z,16.32
2022-08-28T02:54:50.193Z,16.31
2022-08-28T02:55:50.155Z,16.31
2022-08-28T02:56:50.141Z,16.32
2022-08-28T02:57:50.124Z,16.32
2022-08-28T02:58:50.115Z,16.32
2022-08-28T02:59:50.093Z,16.32
2022-08-28T03:00:50.083Z,16.31
2022-08-28T03:01:50.140Z,16.29
2022-08-28T03:02:50.155Z,16.26
2022-08-28T03:03:50.051Z,16.25
2022-08-28T03:04:50.024Z,16.22
2022-08-28T03:05:50.052Z,16.24
2022-08-28T03:06:50.036Z,16.22
2022-08-28T03:07:50.012Z,16.21
2022-08-28T03:08:49.982Z,16.17
2022-08-28T03:09:49.982Z,16.21
2022-08-28T03:10:49.964Z,16.21
2022-08-28T03:11:49.993Z,16.13
2022-08-28T03:12:49.941Z,16.12
2022-08-28T03:13:49.944Z,16.13
2022-08-28T03:14:49.941Z,16.12
2022-08-28T03:15:51.943Z,16.16
2022-08-28T03:16:50.979Z,16.10
2022-08-28T03:17:49.912Z,16.10
2022-08-28T03:18:49.914Z,16.10
2022-08-28T03:19:49.873Z,16.10
2022-08-28T03:20:49.854Z,16.09
2022-08-28T03:21:49.862Z,16.09
2022-08-28T03:22:49.843Z,16.06
2022-08-28T03:23:49.824Z,16.05
2022-08-28T03:24:49.823Z,16.03
2022-08-28T03:25:49.803Z,16.05
2022-08-28T03:26:49.795Z,16.00
2022-08-28T03:27:49.785Z,16.02
2022-08-28T03:28:49.773Z,15.99
2022-08-28T03:29:49.753Z,16.00
2022-08-28T03:30:49.831Z,15.99
2022-08-28T03:31:49.734Z,15.98
2022-08-28T03:32:49.734Z,15.92
2022-08-28T03:33:49.736Z,15.92
2022-08-28T03:34:49.694Z,15.91
2022-08-28T03:35:49.703Z,15.88
2022-08-28T03:36:49.847Z,15.87
2022-08-28T03:37:49.683Z,15.91
2022-08-28T03:38:49.655Z,15.90
2022-08-28T03:39:49.644Z,15.87
2022-08-28T03:40:49.634Z,15.87
2022-08-28T03:41:49.623Z,15.88
2022-08-28T03:42:53.124Z,15.88
2022-08-28T03:43:49.633Z,15.88
2022-08-28T03:44:49.593Z,15.87
2022-08-28T03:45:49.624Z,15.87
2022-08-28T03:46:49.615Z,15.83
2022-08-28T03:47:49.581Z,15.83
2022-08-28T03:48:49.554Z,15.83
2022-08-28T03:49:49.542Z,15.85
2022-08-28T03:50:49.524Z,15.80
2022-08-28T03:51:49.546Z,15.81
2022-08-28T03:52:49.534Z,15.80
2022-08-28T03:53:49.514Z,15.76
2022-08-28T03:54:49.494Z,15.78
2022-08-28T03:55:49.504Z,15.78
2022-08-28T03:56:49.463Z,15.76
2022-08-28T03:57:49.464Z,15.76
2022-08-28T03:58:49.434Z,15.76
2022-08-28T03:59:49.434Z,15.73
2022-08-28T04:00:49.413Z,15.72
2022-08-28T04:01:49.443Z,15.73
2022-08-28T04:02:49.411Z,15.73
2022-08-28T04:03:49.383Z,15.70
2022-08-28T04:04:49.383Z,15.69
2022-08-28T04:05:49.396Z,15.69
2022-08-28T04:06:49.386Z,15.66
2022-08-28T04:07:49.354Z,15.67
2022-08-28T04:08:49.334Z,15.65
2022-08-28T04:09:49.324Z,15.63
2022-08-28T04:10:49.334Z,15.65
2022-08-28T04:11:49.310Z,15.59
2022-08-28T04:12:49.293Z,15.55
2022-08-28T04:13:49.274Z,15.57
2022-08-28T04:14:49.263Z,15.57
2022-08-28T04:15:49.273Z,15.55
2022-08-28T04:16:49.279Z,15.54
2022-08-28T04:17:49.244Z,15.52
2022-08-28T04:18:49.237Z,15.51
2022-08-28T04:19:49.234Z,15.51
2022-08-28T04:20:49.195Z,15.48
2022-08-28T04:21:49.193Z,15.51
2022-08-28T04:22:49.196Z,15.51
2022-08-28T04:23:50.177Z,15.50
2022-08-28T04:24:49.153Z,15.48
2022-08-28T04:25:49.144Z,15.47
2022-08-28T04:26:49.137Z,15.45
2022-08-28T04:27:49.162Z,15.43
2022-08-28T04:28:49.117Z,15.39
2022-08-28T04:29:49.134Z,15.36
2022-08-28T04:30:49.084Z,15.37
2022-08-28T04:31:49.144Z,15.36
2022-08-28T04:32:49.082Z,15.35
2022-08-28T04:33:49.054Z,15.33
2022-08-28T04:34:49.054Z,15.33
2022-08-28T04:35:49.038Z,15.32
2022-08-28T04:36:49.031Z,15.29
2022-08-28T04:37:49.038Z,15.29
2022-08-28T04:38:49.003Z,15.26
2022-08-28T04:39:49.008Z,15.29
2022-08-28T04:40:48.988Z,15.27
2022-08-28T04:41:48.975Z,15.25
2022-08-28T04:42:49.004Z,15.19
2022-08-28T04:43:48.965Z,15.22
2022-08-28T04:44:48.950Z,15.19
2022-08-28T04:45:49.004Z,15.23
2022-08-28T04:46:48.923Z,15.23
2022-08-28T04:47:48.914Z,15.19
2022-08-28T04:48:48.906Z,15.18
2022-08-28T04:49:48.895Z,15.19
2022-08-28T04:50:48.882Z,15.19
2022-08-28T04:51:48.865Z,15.19
2022-08-28T04:52:48.854Z,15.18
2022-08-28T04:53:48.863Z,15.18
2022-08-28T04:54:48.894Z,15.18
2022-08-28T04:55:53.685Z,15.17
2022-08-28T04:56:49.859Z,15.17
2022-08-28T04:57:48.903Z,15.18
2022-08-28T04:58:48.863Z,15.14
2022-08-28T04:59:48.866Z,15.17
2022-08-28T05:00:48.857Z,15.17
2022-08-28T05:01:48.853Z,15.19
2022-08-28T05:02:48.802Z,15.22
2022-08-28T05:03:48.805Z,15.26
2022-08-28T05:04:48.774Z,15.26
2022-08-28T05:05:48.793Z,15.32
2022-08-28T05:06:48.745Z,15.27
2022-08-28T05:07:48.754Z,15.27
2022-08-28T05:08:48.762Z,15.27
2022-08-28T05:09:48.743Z,15.29
2022-08-28T05:10:48.727Z,15.33
2022-08-28T05:11:48.715Z,15.39
2022-08-28T05:12:48.683Z,15.44
2022-08-28T05:13:48.716Z,15.47
2022-08-28T05:14:48.639Z,15.48
2022-08-28T05:15:48.609Z,15.54
2022-08-28T05:16:48.584Z,15.54
2022-08-28T05:17:48.594Z,15.57
2022-08-28T05:18:48.614Z,15.59
2022-08-28T05:19:48.573Z,15.62
2022-08-28T05:20:48.542Z,15.62
2022-08-28T05:21:48.534Z,15.66
2022-08-28T05:22:48.528Z,15.67
2022-08-28T05:23:48.527Z,15.65
2022-08-28T05:24:48.501Z,15.63
2022-08-28T05:25:48.492Z,15.65
2022-08-28T05:26:48.757Z,15.66
2022-08-28T05:27:48.472Z,15.67
2022-08-28T05:28:48.462Z,15.65
2022-08-28T05:29:48.456Z,15.66
2022-08-28T05:30:48.453Z,15.69
2022-08-28T05:31:48.530Z,15.66
2022-08-28T05:32:48.414Z,15.67
2022-08-28T05:33:48.423Z,15.69
2022-08-28T05:34:48.396Z,15.70
2022-08-28T05:35:48.385Z,15.72
2022-08-28T05:36:48.373Z,15.75
2022-08-28T05:37:48.365Z,15.80
2022-08-28T05:38:48.354Z,15.76
2022-08-28T05:39:48.351Z,15.80
2022-08-28T05:40:48.342Z,15.80
2022-08-28T05:41:48.333Z,15.81
2022-08-28T05:42:48.312Z,15.84
2022-08-28T05:43:48.319Z,15.90
2022-08-28T05:44:48.302Z,15.94
2022-08-28T05:45:49.317Z,16.02
2022-08-28T05:46:48.272Z,16.10
2022-08-28T05:47:48.254Z,16.29
2022-08-28T05:48:48.252Z,16.50
2022-08-28T05:49:48.232Z,16.69
2022-08-28T05:50:48.273Z,16.86
2022-08-28T05:51:48.237Z,16.98
2022-08-28T05:52:48.200Z,17.10
2022-08-28T05:53:48.193Z,17.27
2022-08-28T05:54:48.210Z,17.19
2022-08-28T05:55:51.871Z,17.13
2022-08-28T05:56:48.157Z,16.99
2022-08-28T05:57:48.150Z,16.89
2022-08-28T05:58:48.147Z,16.80
2022-08-28T05:59:48.123Z,16.79
2022-08-28T06:00:48.121Z,16.79
2022-08-28T06:01:48.140Z,16.74
2022-08-28T06:02:48.082Z,16.69
2022-08-28T06:03:48.126Z,16.65
2022-08-28T06:04:48.074Z,16.58
2022-08-28T06:05:48.063Z,16.59
2022-08-28T06:06:48.033Z,16.62
2022-08-28T06:07:48.064Z,16.64
2022-08-28T06:08:58.717Z,16.69
2022-08-28T06:09:49.013Z,16.73
2022-08-28T06:10:47.993Z,16.82
2022-08-28T06:11:47.983Z,16.97
2022-08-28T06:12:47.972Z,17.17
2022-08-28T06:13:47.974Z,17.32
2022-08-28T06:14:47.953Z,17.53
2022-08-28T06:15:47.972Z,17.66
2022-08-28T06:16:47.967Z,17.78
2022-08-28T06:17:47.924Z,17.86
2022-08-28T06:18:47.913Z,17.90
2022-08-28T06:19:47.893Z,17.98
2022-08-28T06:20:47.901Z,18.00
2022-08-28T06:21:47.901Z,18.00
2022-08-28T06:22:47.873Z,18.00
2022-08-28T06:23:47.871Z,18.00
2022-08-28T06:24:47.844Z,17.95
2022-08-28T06:25:47.832Z,17.94
2022-08-28T06:26:47.815Z,17.90
2022-08-28T06:27:47.824Z,17.93
2022-08-28T06:28:47.803Z,17.88
2022-08-28T06:29:47.783Z,17.95
2022-08-28T06:31:08.918Z,17.95
2022-08-28T06:31:48.832Z,18.00
2022-08-28T06:32:47.754Z,18.00
2022-08-28T06:33:47.795Z,18.05
2022-08-28T06:34:47.733Z,18.06
2022-08-28T06:35:47.724Z,18.09
2022-08-28T06:36:51.822Z,18.16
2022-08-28T06:37:48.704Z,18.24
2022-08-28T06:38:47.706Z,18.24
2022-08-28T06:39:47.683Z,18.28
2022-08-28T06:40:47.687Z,18.30
2022-08-28T06:41:47.664Z,18.28
2022-08-28T06:42:47.663Z,18.31
2022-08-28T06:43:47.682Z,18.33
2022-08-28T06:44:47.662Z,18.30
2022-08-28T06:45:47.827Z,18.27
2022-08-28T06:46:47.663Z,18.28
2022-08-28T06:47:47.719Z,18.28
2022-08-28T06:48:47.623Z,18.33
2022-08-28T06:49:47.605Z,18.31
2022-08-28T06:50:47.598Z,18.27
2022-08-28T06:51:47.590Z,18.28
2022-08-28T06:52:47.553Z,18.23
2022-08-28T06:53:47.593Z,18.23
2022-08-28T06:54:55.396Z,18.26
2022-08-28T06:55:48.541Z,18.27
2022-08-28T06:56:47.515Z,18.26
2022-08-28T06:57:47.502Z,18.26
2022-08-28T06:58:50.123Z,18.26
2022-08-28T06:59:47.474Z,18.28
2022-08-28T07:00:48.824Z,18.27
2022-08-28T07:01:47.657Z,18.31
2022-08-28T07:02:47.554Z,18.36
2022-08-28T07:03:47.435Z,18.37
2022-08-28T07:04:47.579Z,18.41
2022-08-28T07:05:47.617Z,18.49
2022-08-28T07:06:52.802Z,18.52
2022-08-28T07:07:48.394Z,18.61
2022-08-28T07:08:47.423Z,18.68
2022-08-28T07:09:47.423Z,18.78
2022-08-28T07:10:47.354Z,18.85
2022-08-28T07:11:47.323Z,18.94
2022-08-28T07:12:47.326Z,19.04
2022-08-28T07:13:47.328Z,19.16
2022-08-28T07:14:47.377Z,19.22
2022-08-28T07:15:47.327Z,19.37
2022-08-28T07:16:47.286Z,19.47
2022-08-28T07:17:47.264Z,19.56
2022-08-28T07:18:47.273Z,19.66
2022-08-28T07:19:47.361Z,19.79
2022-08-28T07:20:47.227Z,19.84
2022-08-28T07:21:47.216Z,19.94
2022-08-28T07:22:47.269Z,20.02
2022-08-28T07:23:48.185Z,20.11
2022-08-28T07:24:47.215Z,20.11
2022-08-28T07:25:47.158Z,20.18
2022-08-28T07:26:47.220Z,20.29
2022-08-28T07:27:47.187Z,20.34
2022-08-28T07:28:47.136Z,20.44
2022-08-28T07:29:47.144Z,20.68
2022-08-28T07:30:47.137Z,21.00
2022-08-28T07:31:47.101Z,21.26
2022-08-28T07:32:47.117Z,21.25
2022-08-28T07:33:47.089Z,21.26
2022-08-28T07:34:48.074Z,21.47
2022-08-28T07:35:47.112Z,21.59
2022-08-28T07:36:47.045Z,21.63
2022-08-28T07:37:47.024Z,21.81
2022-08-28T07:38:47.044Z,21.94
2022-08-28T07:39:47.014Z,22.10
2022-08-28T07:40:47.005Z,21.96
2022-08-28T07:41:46.984Z,21.89
2022-08-28T07:42:46.985Z,22.07
2022-08-28T07:43:46.954Z,22.00
2022-08-28T07:44:46.965Z,21.91
2022-08-28T07:45:47.036Z,22.07
2022-08-28T07:46:46.936Z,22.06
2022-08-28T07:47:46.931Z,21.78
2022-08-28T07:48:46.933Z,21.74
2022-08-28T07:49:46.924Z,21.96
2022-08-28T07:50:46.983Z,22.08
2022-08-28T07:51:47.233Z,22.33
2022-08-28T07:52:47.016Z,22.51
2022-08-28T07:53:46.927Z,22.71
2022-08-28T07:54:46.915Z,22.55
2022-08-28T07:55:46.895Z,22.07
2022-08-28T07:56:46.888Z,21.66
2022-08-28T07:57:46.849Z,21.22
2022-08-28T07:58:46.850Z,21.07
2022-08-28T07:59:46.865Z,21.01
2022-08-28T08:00:46.846Z,20.67
2022-08-28T08:01:47.050Z,21.03
2022-08-28T08:02:46.831Z,21.53
2022-08-28T08:03:46.851Z,21.50
2022-08-28T08:04:46.843Z,21.30
2022-08-28T08:05:46.798Z,21.26
2022-08-28T08:06:46.763Z,21.48
2022-08-28T08:07:46.862Z,21.38
2022-08-28T08:08:46.762Z,21.17
2022-08-28T08:09:46.758Z,21.00
2022-08-28T08:10:46.738Z,21.03
2022-08-28T08:11:46.664Z,20.96
2022-08-28T08:12:46.661Z,20.88
2022-08-28T08:13:46.625Z,21.29
2022-08-28T08:14:46.685Z,21.84
2022-08-28T08:15:46.633Z,21.62
2022-08-28T08:16:46.667Z,21.43
2022-08-28T08:17:46.723Z,21.44
2022-08-28T08:18:46.678Z,21.35
2022-08-28T08:19:46.581Z,21.51
2022-08-28T08:20:46.610Z,22.04
2022-08-28T08:21:46.580Z,21.92
2022-08-28T08:22:46.532Z,21.59
2022-08-28T08:23:46.517Z,22.01
2022-08-28T08:24:46.518Z,22.71
2022-08-28T08:25:46.529Z,23.23
2022-08-28T08:26:56.571Z,23.54
2022-08-28T08:27:47.484Z,24.09
2022-08-28T08:28:46.489Z,24.37
2022-08-28T08:29:46.458Z,24.53
2022-08-28T08:30:46.463Z,24.78
2022-08-28T08:31:46.430Z,25.18
2022-08-28T08:32:46.457Z,25.54
2022-08-28T08:33:46.455Z,25.86
2022-08-28T08:34:46.438Z,26.04
2022-08-28T08:35:46.378Z,26.13
2022-08-28T08:36:46.380Z,26.33
2022-08-28T08:37:46.362Z,26.55
2022-08-28T08:38:46.399Z,26.61
2022-08-28T08:39:46.369Z,26.71
2022-08-28T08:40:46.401Z,26.51
2022-08-28T08:41:46.319Z,26.34
2022-08-28T08:42:46.320Z,26.22
2022-08-28T08:43:46.304Z,26.29
2022-08-28T08:44:46.342Z,26.16
2022-08-28T08:45:46.270Z,26.19
2022-08-28T08:46:46.269Z,26.34
2022-08-28T08:47:46.259Z,26.64
2022-08-28T08:48:46.244Z,27.00
2022-08-28T08:49:46.252Z,27.34
2022-08-28T08:50:46.224Z,27.67
2022-08-28T08:51:46.248Z,27.67
2022-08-28T08:52:46.208Z,27.37
2022-08-28T08:53:46.192Z,27.13
2022-08-28T08:54:46.240Z,27.08
2022-08-28T08:55:46.209Z,27.45
2022-08-28T08:56:46.277Z,27.44
2022-08-28T08:57:49.317Z,27.50
2022-08-28T08:58:46.188Z,27.40
2022-08-28T08:59:46.192Z,27.73
2022-08-28T09:00:46.164Z,27.85
2022-08-28T09:01:46.219Z,28.23
2022-08-28T09:02:46.174Z,27.47
2022-08-28T09:03:46.201Z,27.76
2022-08-28T09:04:46.167Z,27.93
2022-08-28T09:05:46.114Z,27.82
2022-08-28T09:06:46.104Z,26.39
2022-08-28T09:07:48.256Z,26.03
2022-08-28T09:08:47.083Z,25.96
2022-08-28T09:09:46.102Z,25.34
2022-08-28T09:10:46.184Z,25.19
2022-08-28T09:11:46.020Z,25.44
2022-08-28T09:12:47.002Z,26.33
2022-08-28T09:13:46.042Z,26.79
2022-08-28T09:14:46.174Z,26.92
2022-08-28T09:15:48.814Z,26.81
2022-08-28T09:16:45.991Z,26.97
2022-08-28T09:17:45.980Z,27.13
2022-08-28T09:18:45.953Z,27.28
2022-08-28T09:19:45.953Z,27.23
2022-08-28T09:20:45.943Z,27.48
2022-08-28T09:21:45.959Z,27.76
2022-08-28T09:22:45.968Z,27.95
2022-08-28T09:23:45.924Z,28.46
2022-08-28T09:24:45.987Z,28.92
2022-08-28T09:25:45.876Z,29.32
2022-08-28T09:26:45.915Z,29.55
2022-08-28T09:27:45.855Z,29.59
2022-08-28T09:28:45.887Z,29.89
2022-08-28T09:29:45.946Z,28.41
2022-08-28T09:30:45.845Z,27.86
2022-08-28T09:31:45.812Z,28.38
2022-08-28T09:32:45.815Z,28.33
2022-08-28T09:33:45.802Z,28.68
2022-08-28T09:34:45.821Z,28.04
2022-08-28T09:35:45.775Z,27.03
2022-08-28T09:36:45.809Z,27.20
2022-08-28T09:37:45.735Z,27.19
2022-08-28T09:38:45.736Z,27.11
2022-08-28T09:39:48.838Z,27.16
2022-08-28T09:40:45.728Z,26.74
2022-08-28T09:41:45.706Z,27.19
2022-08-28T09:42:45.687Z,28.64
2022-08-28T09:43:45.681Z,29.39
2022-08-28T09:44:45.667Z,29.67
2022-08-28T09:45:46.676Z,28.38
2022-08-28T09:46:45.709Z,26.86
2022-08-28T09:47:46.240Z,26.06
2022-08-28T09:48:45.886Z,25.52
2022-08-28T09:49:45.617Z,25.19
2022-08-28T09:50:45.656Z,24.82
2022-08-28T09:51:45.621Z,24.51
2022-08-28T09:52:45.588Z,25.03
2022-08-28T09:53:45.590Z,26.89
2022-08-28T09:54:45.608Z,28.09
2022-08-28T09:55:45.548Z,28.84
2022-08-28T09:56:45.560Z,29.25
2022-08-28T09:57:45.509Z,29.46
2022-08-28T09:58:45.513Z,29.67
2022-08-28T09:59:45.525Z,29.39
2022-08-28T10:00:45.510Z,29.57
2022-08-28T10:01:45.572Z,29.89
2022-08-28T10:02:45.469Z,29.99
2022-08-28T10:03:45.462Z,30.17
2022-08-28T10:04:45.545Z,30.24
2022-08-28T10:05:45.460Z,30.05
2022-08-28T10:06:45.443Z,30.10
2022-08-28T10:07:45.419Z,30.21
2022-08-28T10:08:45.402Z,29.99
2022-08-28T10:09:47.707Z,29.76
2022-08-28T10:10:45.410Z,29.94
2022-08-28T10:11:45.379Z,30.20
2022-08-28T10:12:45.410Z,30.43
2022-08-28T10:13:45.378Z,30.21
2022-08-28T10:14:45.373Z,30.14
2022-08-28T10:15:45.401Z,29.62
2022-08-28T10:16:45.316Z,29.92
2022-08-28T10:17:45.298Z,30.08
2022-08-28T10:18:45.261Z,30.23
2022-08-28T10:19:45.261Z,30.51
2022-08-28T10:20:45.265Z,30.46
2022-08-28T10:21:45.243Z,30.61
2022-08-28T10:22:45.256Z,30.73
2022-08-28T10:23:45.213Z,30.91
2022-08-28T10:24:45.223Z,30.85
2022-08-28T10:25:45.269Z,30.36
2022-08-28T10:26:45.212Z,29.77
2022-08-28T10:27:45.227Z,29.39
2022-08-28T10:28:45.213Z,28.97
2022-08-28T10:29:45.183Z,27.71
2022-08-28T10:30:45.240Z,27.11
2022-08-28T10:31:45.153Z,26.66
2022-08-28T10:32:45.150Z,26.31
2022-08-28T10:33:45.163Z,26.10
2022-08-28T10:34:45.113Z,26.03
2022-08-28T10:35:45.133Z,26.29
2022-08-28T10:36:45.105Z,26.41
2022-08-28T10:37:45.096Z,26.45
2022-08-28T10:38:49.488Z,26.42
2022-08-28T10:39:46.063Z,26.46
2022-08-28T10:40:45.055Z,26.31
2022-08-28T10:41:45.015Z,26.15
2022-08-28T10:42:45.016Z,26.19
2022-08-28T10:43:45.262Z,26.19
2022-08-28T10:44:45.255Z,26.53
2022-08-28T10:45:46.180Z,26.89
2022-08-28T10:46:45.020Z,27.29
2022-08-28T10:47:44.967Z,27.55
2022-08-28T10:48:45.014Z,27.26
2022-08-28T10:49:44.967Z,27.43
2022-08-28T10:50:44.979Z,27.23
2022-08-28T10:51:44.929Z,26.86
2022-08-28T10:52:44.958Z,26.59
2022-08-28T10:53:44.917Z,26.24
2022-08-28T10:54:44.948Z,26.53
2022-08-28T10:55:44.943Z,26.61
2022-08-28T10:56:44.881Z,26.76
2022-08-28T10:57:45.076Z,27.13
2022-08-28T10:58:44.924Z,27.34
2022-08-28T10:59:44.858Z,27.47
2022-08-28T11:00:44.894Z,27.73
2022-08-28T11:01:44.925Z,27.83
2022-08-28T11:02:45.030Z,28.18
2022-08-28T11:03:44.794Z,28.41
2022-08-28T11:04:44.798Z,28.15
2022-08-28T11:05:53.430Z,28.15
2022-08-28T11:06:45.827Z,28.96
2022-08-28T11:07:44.834Z,29.53
2022-08-28T11:08:44.769Z,29.81
2022-08-28T11:09:44.805Z,29.37
2022-08-28T11:10:44.732Z,28.62
2022-08-28T11:11:44.759Z,29.02
2022-08-28T11:12:44.806Z,30.17
2022-08-28T11:13:44.683Z,31.05
2022-08-28T11:14:48.089Z,31.39
2022-08-28T11:15:44.643Z,30.83
2022-08-28T11:16:44.728Z,31.13
2022-08-28T11:17:44.648Z,31.45
2022-08-28T11:18:44.632Z,32.22
2022-08-28T11:19:47.073Z,31.51
2022-08-28T11:20:45.631Z,30.49
2022-08-28T11:21:44.633Z,30.06
2022-08-28T11:22:44.605Z,29.52
2022-08-28T11:23:44.591Z,28.78
2022-08-28T11:24:44.600Z,28.23
2022-08-28T11:25:44.691Z,27.63
2022-08-28T11:26:44.593Z,27.33
2022-08-28T11:27:44.551Z,27.81
2022-08-28T11:28:44.534Z,28.68
2022-08-28T11:29:44.543Z,29.46
2022-08-28T11:30:44.550Z,29.95
2022-08-28T11:31:44.527Z,30.46
2022-08-28T11:32:47.038Z,30.51
2022-08-28T11:33:44.480Z,30.81
2022-08-28T11:34:44.476Z,31.14
2022-08-28T11:35:44.463Z,31.23
2022-08-28T11:36:44.445Z,31.14
2022-08-28T11:37:44.444Z,31.41
2022-08-28T11:38:44.436Z,31.64
2022-08-28T11:39:44.454Z,31.39
2022-08-28T11:40:44.414Z,31.28
2022-08-28T11:41:44.439Z,31.02
2022-08-28T11:42:44.467Z,31.08
2022-08-28T11:43:44.375Z,31.35
2022-08-28T11:44:44.396Z,31.60
2022-08-28T11:45:45.707Z,31.52
2022-08-28T11:46:44.560Z,30.99
2022-08-28T11:47:44.340Z,31.07
2022-08-28T11:48:44.339Z,30.29
2022-08-28T11:49:44.292Z,29.74
2022-08-28T11:50:44.259Z,30.29
2022-08-28T11:51:44.368Z,31.14
2022-08-28T11:52:44.328Z,31.89
2022-08-28T11:53:44.280Z,32.42
2022-08-28T11:54:44.223Z,32.81
2022-08-28T11:55:44.236Z,32.94
2022-08-28T11:56:44.259Z,32.30
2022-08-28T11:57:44.216Z,31.22
2022-08-28T11:58:44.313Z,29.68
2022-08-28T11:59:44.253Z,29.43
2022-08-28T12:00:44.180Z,30.85
2022-08-28T12:01:44.171Z,31.90
2022-08-28T12:02:44.301Z,32.67
2022-08-28T12:03:44.131Z,33.20
2022-08-28T12:04:44.878Z,33.35
2022-08-28T12:05:44.236Z,33.72
2022-08-28T12:06:44.206Z,33.32
2022-08-28T12:07:44.143Z,31.72
2022-08-28T12:08:44.115Z,30.89
2022-08-28T12:09:44.103Z,30.08
2022-08-28T12:10:44.083Z,29.27
2022-08-28T12:11:44.114Z,28.60
2022-08-28T12:12:44.103Z,27.88
2022-08-28T12:13:44.077Z,27.41
2022-08-28T12:14:44.034Z,27.78
2022-08-28T12:15:44.072Z,29.06
2022-08-28T12:16:44.034Z,30.80
2022-08-28T12:17:43.977Z,32.24
2022-08-28T12:18:44.014Z,32.73
2022-08-28T12:19:56.057Z,33.32
2022-08-28T12:20:45.049Z,33.91
2022-08-28T12:21:44.489Z,34.16
2022-08-28T12:22:43.935Z,34.44
2022-08-28T12:23:43.936Z,34.82
2022-08-28T12:24:43.942Z,35.05
2022-08-28T12:25:43.977Z,34.76
2022-08-28T12:26:43.937Z,34.89
2022-08-28T12:27:43.913Z,35.31
2022-08-28T12:28:43.868Z,34.59
2022-08-28T12:29:43.867Z,34.56
2022-08-28T12:30:43.922Z,34.31
2022-08-28T12:31:43.883Z,33.16
2022-08-28T12:32:43.888Z,32.86
2022-08-28T12:33:43.840Z,34.09
2022-08-28T12:34:43.837Z,33.67
2022-08-28T12:35:44.066Z,31.78
2022-08-28T12:36:43.821Z,30.49
2022-08-28T12:37:52.941Z,29.53
2022-08-28T12:38:44.803Z,29.25
2022-08-28T12:39:43.821Z,28.90
2022-08-28T12:40:43.876Z,28.77
2022-08-28T12:41:43.758Z,28.46
2022-08-28T12:42:43.729Z,30.73
2022-08-28T12:43:46.756Z,32.49
2022-08-28T12:44:43.775Z,33.48
2022-08-28T12:45:43.789Z,34.33
2022-08-28T12:46:43.755Z,35.01
2022-08-28T12:47:43.722Z,32.71
2022-08-28T12:48:43.774Z,31.07
2022-08-28T12:49:43.689Z,29.43
2022-08-28T12:50:43.662Z,28.35
2022-08-28T12:51:43.862Z,28.19
2022-08-28T12:52:43.805Z,28.22